createdAt,value
2019-04-05T00:00:41.249Z,13.45
2019-04-05T00:01:45.467Z,12.78
2019-04-05T00:02:49.829Z,12.45
2019-04-05T00:03:54.002Z,13.28
2019-04-05T00:04:58.266Z,13.78
2019-04-05T00:06:02.537Z,12.18
2019-04-05T00:07:06.839Z,12.65
2019-04-05T00:08:11.075Z,11.10
2019-04-05T00:09:15.371Z,13.18
2019-04-05T00:10:19.766Z,12.88
2019-04-05T00:11:23.959Z,13.68
2019-04-05T00:12:28.408Z,11.80
2019-04-05T00:13:32.780Z,12.75
2019-04-05T00:14:37.162Z,11.33
2019-04-05T00:15:41.343Z,13.03
2019-04-05T00:16:45.695Z,12.20
2019-04-05T00:17:49.940Z,13.32
2019-04-05T00:18:54.300Z,14.15
2019-04-05T00:19:58.630Z,10.82
2019-04-05T00:21:02.950Z,10.08
2019-04-05T00:22:07.240Z,11.95
2019-04-05T00:23:11.547Z,12.25
2019-04-05T00:24:15.826Z,10.85
2019-04-05T00:25:20.042Z,11.33
2019-04-05T00:26:24.296Z,11.65
2019-04-05T00:27:28.595Z,11.30
2019-04-05T00:28:32.874Z,13.32
2019-04-05T00:29:37.267Z,11.00
2019-04-05T00:30:41.641Z,11.35
2019-04-05T00:31:45.927Z,11.03
2019-04-05T00:32:50.451Z,10.65
2019-04-05T00:33:54.726Z,13.00
2019-04-05T00:34:58.975Z,12.25
2019-04-05T00:36:03.184Z,11.08
2019-04-05T00:37:07.451Z,11.15
2019-04-05T00:38:11.767Z,12.60
2019-04-05T00:39:16.067Z,14.60
2019-04-05T00:40:20.443Z,17.55
2019-04-05T00:41:24.973Z,12.35
2019-04-05T00:42:29.227Z,11.25
2019-04-05T00:43:33.520Z,10.90
2019-04-05T00:44:37.787Z,11.83
2019-04-05T00:45:41.955Z,12.03
2019-04-05T00:46:46.265Z,11.55
2019-04-05T00:47:50.449Z,13.62
2019-04-05T00:48:54.695Z,11.65
2019-04-05T00:49:58.911Z,11.05
2019-04-05T00:51:03.297Z,13.25
2019-04-05T00:52:08.041Z,11.53
2019-04-05T00:53:12.372Z,12.68
2019-04-05T00:54:16.803Z,15.32
2019-04-05T00:55:21.080Z,12.78
2019-04-05T00:56:25.468Z,12.78
2019-04-05T00:57:29.722Z,11.33
2019-04-05T00:58:34.379Z,10.45
2019-04-05T00:59:38.657Z,15.68
2019-04-05T01:00:42.908Z,13.35
2019-04-05T01:01:47.203Z,14.40
2019-04-05T01:02:51.471Z,14.25
2019-04-05T01:03:55.872Z,12.70
2019-04-05T01:05:00.147Z,12.25
2019-04-05T01:06:04.549Z,13.65
2019-04-05T01:07:08.719Z,15.20
2019-04-05T01:08:13.238Z,14.95
2019-04-05T01:09:17.531Z,14.70
2019-04-05T01:10:21.920Z,15.38
2019-04-05T01:11:26.088Z,17.27
2019-04-05T01:12:31.967Z,14.95
2019-04-05T01:13:36.534Z,13.68
2019-04-05T01:14:41.217Z,16.45
2019-04-05T01:15:45.480Z,14.05
2019-04-05T01:16:50.041Z,15.05
2019-04-05T01:17:55.132Z,16.23
2019-04-05T01:18:59.499Z,13.13
2019-04-05T01:20:04.625Z,16.07
2019-04-05T01:21:11.291Z,17.17
2019-04-05T01:22:16.841Z,17.10
2019-04-05T01:23:21.957Z,16.25
2019-04-05T01:24:26.455Z,15.88
2019-04-05T01:25:31.654Z,18.32
2019-04-05T01:26:37.207Z,17.05
2019-04-05T01:27:42.748Z,15.83
2019-04-05T01:28:46.954Z,15.83
2019-04-05T01:29:51.141Z,16.17
2019-04-05T01:30:55.433Z,16.77
2019-04-05T01:31:59.820Z,18.10
2019-04-05T01:33:03.977Z,17.35
2019-04-05T01:34:08.139Z,17.35
2019-04-05T01:35:12.852Z,19.75
2019-04-05T01:36:17.167Z,20.50
2019-04-05T01:37:22.043Z,20.17
2019-04-05T01:38:26.356Z,18.02
2019-04-05T01:39:30.674Z,17.57
2019-04-05T01:40:37.629Z,15.95
2019-04-05T01:41:42.627Z,14.87
2019-04-05T01:42:48.299Z,17.35
2019-04-05T01:43:52.999Z,16.42
2019-04-05T01:44:57.187Z,19.17
2019-04-05T01:46:02.221Z,21.30
2019-04-05T01:47:06.719Z,19.00
2019-04-05T01:48:10.938Z,20.52
2019-04-05T01:49:15.220Z,21.23
2019-04-05T01:50:19.726Z,19.42
2019-04-05T01:51:24.060Z,16.93
2019-04-05T01:52:28.492Z,18.32
2019-04-05T01:53:32.758Z,17.77
2019-04-05T01:54:37.042Z,20.00
2019-04-05T01:55:41.565Z,18.00
2019-04-05T01:56:45.723Z,19.82
2019-04-05T01:57:49.983Z,18.57
2019-04-05T01:58:54.629Z,16.97
2019-04-05T01:59:58.847Z,18.25
2019-04-05T02:01:03.275Z,20.05
2019-04-05T02:02:07.592Z,20.55
2019-04-05T02:03:11.985Z,19.92
2019-04-05T02:04:16.186Z,18.17
2019-04-05T02:05:20.883Z,17.42
2019-04-05T02:06:25.437Z,20.65
2019-04-05T02:07:29.722Z,20.48
2019-04-05T02:08:34.333Z,17.87
2019-04-05T02:09:39.032Z,15.25
2019-04-05T02:10:43.749Z,21.17
2019-04-05T02:11:47.870Z,16.93
2019-04-05T02:12:52.113Z,18.32
2019-04-05T02:13:56.437Z,15.75
2019-04-05T02:15:00.807Z,19.95
2019-04-05T02:16:06.617Z,16.10
2019-04-05T02:17:11.171Z,16.45
2019-04-05T02:18:15.406Z,17.62
2019-04-05T02:19:19.839Z,18.50
2019-04-05T02:20:24.489Z,17.05
2019-04-05T02:21:28.744Z,17.98
2019-04-05T02:22:32.916Z,19.00
2019-04-05T02:23:37.185Z,17.70
2019-04-05T02:24:41.569Z,18.75
2019-04-05T02:25:45.877Z,17.12
2019-04-05T02:26:50.174Z,19.75
2019-04-05T02:27:54.507Z,19.35
2019-04-05T02:28:58.687Z,15.75
2019-04-05T02:30:03.036Z,17.05
2019-04-05T02:31:07.291Z,18.60
2019-04-05T02:32:11.603Z,22.48
2019-04-05T02:33:15.952Z,16.60
2019-04-05T02:34:20.312Z,16.48
2019-04-05T02:35:24.487Z,17.45
2019-04-05T02:36:28.679Z,17.85
2019-04-05T02:37:32.855Z,15.40
2019-04-05T02:38:37.223Z,21.60
2019-04-05T02:39:41.584Z,18.67
2019-04-05T02:40:47.192Z,18.42
2019-04-05T02:41:54.210Z,18.35
2019-04-05T02:43:00.214Z,18.05
2019-04-05T02:44:05.421Z,19.80
2019-04-05T02:45:11.351Z,17.30
2019-04-05T02:46:23.822Z,17.27
2019-04-05T02:47:24.794Z,19.48
2019-04-05T02:48:31.893Z,19.48
2019-04-05T02:49:36.566Z,17.32
2019-04-05T02:50:44.176Z,17.95
2019-04-05T02:51:50.123Z,18.55
2019-04-05T02:52:57.299Z,16.93
2019-04-05T02:54:02.883Z,24.40
2019-04-05T02:55:07.529Z,21.77
2019-04-05T02:56:12.914Z,17.77
2019-04-05T02:57:17.751Z,17.07
2019-04-05T02:58:23.045Z,20.30
2019-04-05T02:59:28.101Z,15.83
2019-04-05T03:00:32.928Z,18.77
2019-04-05T03:01:37.396Z,18.52
2019-04-05T03:02:43.007Z,18.40
2019-04-05T03:03:47.342Z,24.23
2019-04-05T03:04:51.583Z,20.15
2019-04-05T03:05:56.148Z,19.20
2019-04-05T03:07:00.955Z,18.50
2019-04-05T03:08:05.914Z,17.35
2019-04-05T03:09:11.233Z,22.13
2019-04-05T03:10:54.733Z,16.70
2019-04-05T03:11:59.340Z,16.30
2019-04-05T03:13:03.746Z,18.40
2019-04-05T03:14:10.634Z,19.90
2019-04-05T03:15:15.133Z,19.48
2019-04-05T03:16:39.486Z,30.12
2019-04-05T03:17:30.962Z,18.45
2019-04-05T03:18:39.031Z,20.90
2019-04-05T03:19:45.925Z,19.25
2019-04-05T03:20:50.833Z,16.45
2019-04-05T03:22:00.067Z,23.42
2019-04-05T03:23:04.949Z,17.80
2019-04-05T03:24:12.721Z,19.00
2019-04-05T03:25:17.002Z,16.42
2019-04-05T03:26:24.599Z,21.07
2019-04-05T03:27:32.163Z,18.65
2019-04-05T03:28:39.184Z,17.70
2019-04-05T03:29:44.075Z,17.50
2019-04-05T03:30:48.766Z,21.33
2019-04-05T03:31:54.160Z,18.75
2019-04-05T03:32:58.748Z,19.07
2019-04-05T03:34:03.103Z,19.35
2019-04-05T03:35:07.566Z,18.02
2019-04-05T03:36:12.195Z,18.62
2019-04-05T03:37:16.800Z,17.65
2019-04-05T03:38:20.995Z,17.90
2019-04-05T03:39:25.315Z,19.17
2019-04-05T03:40:29.933Z,20.70
2019-04-05T03:41:34.634Z,21.02
2019-04-05T03:42:39.402Z,23.65
2019-04-05T03:43:45.034Z,17.95
2019-04-05T03:44:49.475Z,18.25
2019-04-05T03:45:53.999Z,19.05
2019-04-05T03:46:58.365Z,25.17
2019-04-05T03:48:02.933Z,20.43
2019-04-05T03:49:07.231Z,20.25
2019-04-05T03:50:11.755Z,20.08
2019-04-05T03:51:16.325Z,19.82
2019-04-05T03:52:20.577Z,18.90
2019-04-05T03:53:24.694Z,19.32
2019-04-05T03:54:29.664Z,18.17
2019-04-05T03:55:34.097Z,19.10
2019-04-05T03:56:38.576Z,23.00
2019-04-05T03:57:43.070Z,19.05
2019-04-05T03:58:47.637Z,21.15
2019-04-05T03:59:53.011Z,19.27
2019-04-05T04:00:57.634Z,18.10
2019-04-05T04:02:01.911Z,23.02
2019-04-05T04:03:06.428Z,19.37
2019-04-05T04:04:11.579Z,19.00
2019-04-05T04:05:15.718Z,20.37
2019-04-05T04:06:20.125Z,20.00
2019-04-05T04:07:24.359Z,19.95
2019-04-05T04:08:28.569Z,17.70
2019-04-05T04:09:32.927Z,19.17
2019-04-05T04:10:37.149Z,22.07
2019-04-05T04:11:41.809Z,19.57
2019-04-05T04:12:45.983Z,16.82
2019-04-05T04:13:50.763Z,21.42
2019-04-05T04:14:57.235Z,19.73
2019-04-05T04:16:01.561Z,19.80
2019-04-05T04:17:12.599Z,18.73
2019-04-05T04:18:12.477Z,19.57
2019-04-05T04:19:16.785Z,18.27
2019-04-05T04:20:42.411Z,19.05
2019-04-05T04:22:30.289Z,18.02
2019-04-05T04:23:34.642Z,19.77
2019-04-05T04:24:39.187Z,20.77
2019-04-05T04:25:45.119Z,19.77
2019-04-05T04:26:51.289Z,16.23
2019-04-05T04:27:56.002Z,15.93
2019-04-05T04:29:00.605Z,19.90
2019-04-05T04:30:05.288Z,19.73
2019-04-05T04:31:09.595Z,19.15
2019-04-05T04:32:15.018Z,19.82
2019-04-05T04:33:19.799Z,19.70
2019-04-05T04:34:24.440Z,18.85
2019-04-05T04:35:28.958Z,19.50
2019-04-05T04:36:34.078Z,22.48
2019-04-05T04:37:38.362Z,20.57
2019-04-05T04:38:43.479Z,20.50
2019-04-05T04:39:47.871Z,20.95
2019-04-05T04:40:52.290Z,23.60
2019-04-05T04:41:57.957Z,18.92
2019-04-05T04:43:02.599Z,17.67
2019-04-05T04:44:06.848Z,19.57
2019-04-05T04:45:13.037Z,21.12
2019-04-05T04:46:17.555Z,18.80
2019-04-05T04:47:26.711Z,20.97
2019-04-05T04:48:29.444Z,16.73
2019-04-05T04:49:33.857Z,19.87
2019-04-05T04:50:39.060Z,17.42
2019-04-05T04:51:43.744Z,26.07
2019-04-05T04:52:48.294Z,19.55
2019-04-05T04:53:53.050Z,23.67
2019-04-05T04:54:57.872Z,21.65
2019-04-05T04:56:02.463Z,19.87
2019-04-05T04:57:07.026Z,19.57
2019-04-05T04:58:11.201Z,19.42
2019-04-05T04:59:15.353Z,22.95
2019-04-05T05:00:19.895Z,25.80
2019-04-05T05:01:24.072Z,22.77
2019-04-05T05:02:28.539Z,18.73
2019-04-05T05:03:33.483Z,22.50
2019-04-05T05:04:38.184Z,19.73
2019-04-05T05:05:42.659Z,21.90
2019-04-05T05:06:47.130Z,22.90
2019-04-05T05:07:51.877Z,24.27
2019-04-05T05:08:56.161Z,30.70
2019-04-05T05:10:03.095Z,24.72
2019-04-05T05:11:14.371Z,24.02
2019-04-05T05:12:12.966Z,18.55
2019-04-05T05:13:17.181Z,21.35
2019-04-05T05:14:21.731Z,21.23
2019-04-05T05:15:27.445Z,21.27
2019-04-05T05:16:31.823Z,19.52
2019-04-05T05:17:38.742Z,23.20
2019-04-05T05:18:43.078Z,21.42
2019-04-05T05:19:47.778Z,19.42
2019-04-05T05:20:51.999Z,26.48
2019-04-05T05:21:56.381Z,20.45
2019-04-05T05:23:00.915Z,22.35
2019-04-05T05:24:05.528Z,23.50
2019-04-05T05:25:10.271Z,18.27
2019-04-05T05:26:14.828Z,24.32
2019-04-05T05:27:19.117Z,23.60
2019-04-05T05:28:23.533Z,23.15
2019-04-05T05:29:27.904Z,21.85
2019-04-05T05:30:32.442Z,24.12
2019-04-05T05:31:36.947Z,23.30
2019-04-05T05:32:41.355Z,22.30
2019-04-05T05:33:45.726Z,22.58
2019-04-05T05:35:01.434Z,21.87
2019-04-05T05:35:56.361Z,21.30
2019-04-05T05:37:00.727Z,20.88
2019-04-05T05:38:04.978Z,22.00
2019-04-05T05:39:09.764Z,22.77
2019-04-05T05:40:14.973Z,22.55
2019-04-05T05:41:19.514Z,20.12
2019-04-05T05:42:24.102Z,21.73
2019-04-05T05:43:28.487Z,21.05
2019-04-05T05:44:32.685Z,21.15
2019-04-05T05:45:36.837Z,21.35
2019-04-05T05:46:41.153Z,22.95
2019-04-05T05:47:51.607Z,24.05
2019-04-05T05:48:51.491Z,20.12
2019-04-05T05:49:55.825Z,23.10
2019-04-05T05:51:00.644Z,23.67
2019-04-05T05:52:04.919Z,22.15
2019-04-05T05:53:09.467Z,24.90
2019-04-05T05:54:14.101Z,20.95
2019-04-05T05:55:18.407Z,22.60
2019-04-05T05:56:22.638Z,20.65
2019-04-05T05:57:26.757Z,19.32
2019-04-05T05:58:30.981Z,21.05
2019-04-05T05:59:35.334Z,23.70
2019-04-05T06:00:39.625Z,25.20
2019-04-05T06:01:43.898Z,21.27
2019-04-05T06:02:48.714Z,20.12
2019-04-05T06:03:53.096Z,20.85
2019-04-05T06:04:57.272Z,20.08
2019-04-05T06:06:04.505Z,19.95
2019-04-05T06:07:07.672Z,22.98
2019-04-05T06:08:11.884Z,20.90
2019-04-05T06:09:16.134Z,22.37
2019-04-05T06:10:20.907Z,25.12
2019-04-05T06:11:25.207Z,21.25
2019-04-05T06:12:29.383Z,21.68
2019-04-05T06:13:33.657Z,17.77
2019-04-05T06:14:37.943Z,23.57
2019-04-05T06:15:42.229Z,23.02
2019-04-05T06:16:46.853Z,20.97
2019-04-05T06:18:03.859Z,21.23
2019-04-05T06:18:57.168Z,24.72
2019-04-05T06:20:01.516Z,18.05
2019-04-05T06:21:05.937Z,20.23
2019-04-05T06:22:10.101Z,21.97
2019-04-05T06:23:14.295Z,20.20
2019-04-05T06:24:18.599Z,18.45
2019-04-05T06:25:22.827Z,23.27
2019-04-05T06:26:27.019Z,24.52
2019-04-05T06:27:31.380Z,20.05
2019-04-05T06:28:35.585Z,21.87
2019-04-05T06:29:39.874Z,20.70
2019-04-05T06:30:44.185Z,19.55
2019-04-05T06:31:48.498Z,20.70
2019-04-05T06:32:52.739Z,21.75
2019-04-05T06:33:57.025Z,22.00
2019-04-05T06:35:01.322Z,20.17
2019-04-05T06:36:05.494Z,22.40
2019-04-05T06:37:09.669Z,20.60
2019-04-05T06:38:13.906Z,17.87
2019-04-05T06:39:20.558Z,19.37
2019-04-05T06:40:24.323Z,19.35
2019-04-05T06:41:28.775Z,21.82
2019-04-05T06:42:33.072Z,24.55
2019-04-05T06:43:37.302Z,18.75
2019-04-05T06:44:41.600Z,20.88
2019-04-05T06:45:46.112Z,22.02
2019-04-05T06:46:50.559Z,21.68
2019-04-05T06:47:54.916Z,22.60
2019-04-05T06:48:59.269Z,19.37
2019-04-05T06:50:03.660Z,25.25
2019-04-05T06:51:08.053Z,19.77
2019-04-05T06:52:12.365Z,18.92
2019-04-05T06:53:16.548Z,19.52
2019-04-05T06:54:20.879Z,20.37
2019-04-05T06:55:25.213Z,20.90
2019-04-05T06:56:29.553Z,19.92
2019-04-05T06:57:33.737Z,17.73
2019-04-05T06:58:37.963Z,22.20
2019-04-05T06:59:42.263Z,17.02
2019-04-05T07:00:57.014Z,20.02
2019-04-05T07:01:52.499Z,21.60
2019-04-05T07:02:56.786Z,18.15
2019-04-05T07:04:01.030Z,21.33
2019-04-05T07:05:05.943Z,17.65
2019-04-05T07:06:10.331Z,19.10
2019-04-05T07:07:17.647Z,22.50
2019-04-05T07:08:20.611Z,17.92
2019-04-05T07:09:24.814Z,25.35
2019-04-05T07:10:28.958Z,21.97
2019-04-05T07:11:33.183Z,20.02
2019-04-05T07:12:37.527Z,18.57
2019-04-05T07:13:41.779Z,18.92
2019-04-05T07:14:46.054Z,18.80
2019-04-05T07:15:50.397Z,21.85
2019-04-05T07:16:54.697Z,20.48
2019-04-05T07:17:59.030Z,18.10
2019-04-05T07:19:03.355Z,22.00
2019-04-05T07:20:07.629Z,20.68
2019-04-05T07:21:12.183Z,19.77
2019-04-05T07:22:16.420Z,21.10
2019-04-05T07:23:20.757Z,20.62
2019-04-05T07:24:25.022Z,20.48
2019-04-05T07:25:29.592Z,19.55
2019-04-05T07:26:33.879Z,18.05
2019-04-05T07:27:38.121Z,21.52
2019-04-05T07:28:42.457Z,20.48
2019-04-05T07:29:46.731Z,21.30
2019-04-05T07:30:50.975Z,23.00
2019-04-05T07:31:55.310Z,18.95
2019-04-05T07:32:59.567Z,18.52
2019-04-05T07:34:03.974Z,20.97
2019-04-05T07:35:08.543Z,20.32
2019-04-05T07:36:12.829Z,22.45
2019-04-05T07:37:17.123Z,18.55
2019-04-05T07:38:21.451Z,17.70
2019-04-05T07:39:25.647Z,18.77
2019-04-05T07:40:29.909Z,19.40
2019-04-05T07:41:34.331Z,16.62
2019-04-05T07:42:38.613Z,19.65
2019-04-05T07:43:42.808Z,20.95
2019-04-05T07:44:47.129Z,20.00
2019-04-05T07:45:51.446Z,20.25
2019-04-05T07:46:55.699Z,19.10
2019-04-05T07:47:59.980Z,18.92
2019-04-05T07:49:04.168Z,20.02
2019-04-05T07:50:09.291Z,18.87
2019-04-05T07:51:13.642Z,18.70
2019-04-05T07:52:17.907Z,18.42
2019-04-05T07:53:22.111Z,24.15
2019-04-05T07:54:26.389Z,19.75
2019-04-05T07:55:30.651Z,21.95
2019-04-05T07:56:34.825Z,19.10
2019-04-05T07:57:39.115Z,20.43
2019-04-05T07:58:43.297Z,23.40
2019-04-05T07:59:47.591Z,22.13
2019-04-05T08:00:54.277Z,20.57
2019-04-05T08:01:58.441Z,18.67
2019-04-05T08:03:02.644Z,22.17
2019-04-05T08:04:06.810Z,21.00
2019-04-05T08:05:11.160Z,19.27
2019-04-05T08:06:16.358Z,21.35
2019-04-05T08:07:22.455Z,19.57
2019-04-05T08:08:34.219Z,21.50
2019-04-05T08:09:39.677Z,17.30
2019-04-05T08:10:44.662Z,19.62
2019-04-05T08:11:49.368Z,19.48
2019-04-05T08:12:54.480Z,18.27
2019-04-05T08:14:00.511Z,22.52
2019-04-05T08:15:05.451Z,22.55
2019-04-05T08:16:09.650Z,21.33
2019-04-05T08:17:13.879Z,22.58
2019-04-05T08:18:18.177Z,18.85
2019-04-05T08:19:22.285Z,21.65
2019-04-05T08:20:26.598Z,24.80
2019-04-05T08:21:30.726Z,20.08
2019-04-05T08:22:34.909Z,22.93
2019-04-05T08:23:39.215Z,21.02
2019-04-05T08:24:43.523Z,22.50
2019-04-05T08:25:47.921Z,21.27
2019-04-05T08:26:52.147Z,20.05
2019-04-05T08:27:56.856Z,19.90
2019-04-05T08:29:01.099Z,18.95
2019-04-05T08:30:05.826Z,17.50
2019-04-05T08:31:11.003Z,18.65
2019-04-05T08:32:16.256Z,20.23
2019-04-05T08:33:20.890Z,20.77
2019-04-05T08:34:25.195Z,17.57
2019-04-05T08:35:29.446Z,19.98
2019-04-05T08:36:34.013Z,16.65
2019-04-05T08:37:38.316Z,20.88
2019-04-05T08:38:42.954Z,19.85
2019-04-05T08:39:47.189Z,19.82
2019-04-05T08:40:51.352Z,22.32
2019-04-05T08:41:55.601Z,18.55
2019-04-05T08:42:59.785Z,20.25
2019-04-05T08:44:04.131Z,20.30
2019-04-05T08:45:09.090Z,21.73
2019-04-05T08:46:13.267Z,19.70
2019-04-05T08:47:17.583Z,23.80
2019-04-05T08:48:21.730Z,19.82
2019-04-05T08:49:26.012Z,18.20
2019-04-05T08:50:30.301Z,23.10
2019-04-05T08:51:34.583Z,19.20
2019-04-05T08:52:38.759Z,22.52
2019-04-05T08:53:43.069Z,19.62
2019-04-05T08:54:47.373Z,21.62
2019-04-05T08:55:51.681Z,21.27
2019-04-05T08:56:55.853Z,19.52
2019-04-05T08:58:00.018Z,19.95
2019-04-05T08:59:04.293Z,21.87
2019-04-05T09:00:08.835Z,19.65
2019-04-05T09:01:13.111Z,20.80
2019-04-05T09:02:17.373Z,18.82
2019-04-05T09:03:21.674Z,20.70
2019-04-05T09:04:25.868Z,19.27
2019-04-05T09:05:33.112Z,21.50
2019-04-05T09:06:35.914Z,20.52
2019-04-05T09:07:40.196Z,21.90
2019-04-05T09:08:44.778Z,25.15
2019-04-05T09:09:49.071Z,23.83
2019-04-05T09:10:54.695Z,22.25
2019-04-05T09:11:59.172Z,28.27
2019-04-05T09:13:03.405Z,22.58
2019-04-05T09:14:07.588Z,19.73
2019-04-05T09:15:12.095Z,23.92
2019-04-05T09:16:16.394Z,25.30
2019-04-05T09:17:20.618Z,20.00
2019-04-05T09:18:24.833Z,21.17
2019-04-05T09:19:29.059Z,20.70
2019-04-05T09:20:33.343Z,22.40
2019-04-05T09:21:40.583Z,22.80
2019-04-05T09:22:43.657Z,22.75
2019-04-05T09:23:47.912Z,20.70
2019-04-05T09:24:52.280Z,20.00
2019-04-05T09:25:56.604Z,22.20
2019-04-05T09:27:01.029Z,20.62
2019-04-05T09:28:05.315Z,25.15
2019-04-05T09:29:09.621Z,24.27
2019-04-05T09:30:14.401Z,22.60
2019-04-05T09:31:18.932Z,27.32
2019-04-05T09:32:23.175Z,24.05
2019-04-05T09:33:27.412Z,22.50
2019-04-05T09:34:31.748Z,21.62
2019-04-05T09:35:36.031Z,22.98
2019-04-05T09:36:40.268Z,23.80
2019-04-05T09:37:44.577Z,20.20
2019-04-05T09:38:49.119Z,23.40
2019-04-05T09:39:53.394Z,21.35
2019-04-05T09:40:57.697Z,22.60
2019-04-05T09:42:01.987Z,22.25
2019-04-05T09:43:06.226Z,22.15
2019-04-05T09:44:10.523Z,24.20
2019-04-05T09:45:14.789Z,21.97
2019-04-05T09:46:19.091Z,27.55
2019-04-05T09:47:23.465Z,24.10
2019-04-05T09:48:27.617Z,37.90
2019-04-05T09:49:36.979Z,29.37
2019-04-05T09:50:37.725Z,25.48
2019-04-05T09:51:42.133Z,20.27
2019-04-05T09:52:46.324Z,21.73
2019-04-05T09:53:50.603Z,25.37
2019-04-05T09:54:54.877Z,27.58
2019-04-05T09:55:59.848Z,22.93
2019-04-05T09:57:04.134Z,21.00
2019-04-05T09:58:10.050Z,26.12
2019-04-05T09:59:14.734Z,23.05
2019-04-05T10:00:25.103Z,23.10
2019-04-05T10:01:29.370Z,21.62
2019-04-05T10:02:34.083Z,23.32
2019-04-05T10:03:38.272Z,26.45
2019-04-05T10:04:42.509Z,23.47
2019-04-05T10:05:46.643Z,23.67
2019-04-05T10:06:51.023Z,20.92
2019-04-05T10:07:56.075Z,24.23
2019-04-05T10:09:00.285Z,22.67
2019-04-05T10:10:04.897Z,23.80
2019-04-05T10:11:09.195Z,23.70
2019-04-05T10:12:13.467Z,20.92
2019-04-05T10:13:17.779Z,22.48
2019-04-05T10:14:22.021Z,24.45
2019-04-05T10:15:26.226Z,24.95
2019-04-05T10:16:30.525Z,22.15
2019-04-05T10:17:34.982Z,25.32
2019-04-05T10:18:39.141Z,24.72
2019-04-05T10:19:49.912Z,22.22
2019-04-05T10:20:49.509Z,21.40
2019-04-05T10:21:53.838Z,23.90
2019-04-05T10:22:58.140Z,25.88
2019-04-05T10:24:02.490Z,20.32
2019-04-05T10:25:07.155Z,28.12
2019-04-05T10:26:11.470Z,20.65
2019-04-05T10:27:15.729Z,23.42
2019-04-05T10:28:19.929Z,23.05
2019-04-05T10:29:24.179Z,23.60
2019-04-05T10:30:28.476Z,21.85
2019-04-05T10:31:32.682Z,23.20
2019-04-05T10:32:36.869Z,24.20
2019-04-05T10:33:41.114Z,22.45
2019-04-05T10:34:45.472Z,20.00
2019-04-05T10:35:49.739Z,27.73
2019-04-05T10:36:53.965Z,21.35
2019-04-05T10:37:58.548Z,23.52
2019-04-05T10:39:04.426Z,22.85
2019-04-05T10:40:09.171Z,22.85
2019-04-05T10:41:13.513Z,23.50
2019-04-05T10:42:30.963Z,22.93
2019-04-05T10:43:35.163Z,22.15
2019-04-05T10:44:39.462Z,22.85
2019-04-05T10:45:43.795Z,24.45
2019-04-05T10:46:48.077Z,22.13
2019-04-05T10:47:52.463Z,22.70
2019-04-05T10:48:56.628Z,22.15
2019-04-05T10:50:03.489Z,22.25
2019-04-05T10:51:06.861Z,22.20
2019-04-05T10:52:11.183Z,22.30
2019-04-05T10:53:15.505Z,21.65
2019-04-05T10:54:19.807Z,21.95
2019-04-05T10:55:24.089Z,25.27
2019-04-05T10:56:28.263Z,21.27
2019-04-05T10:57:32.496Z,24.15
2019-04-05T10:58:36.797Z,22.45
2019-04-05T10:59:40.999Z,23.00
2019-04-05T11:00:45.255Z,24.05
2019-04-05T11:01:49.435Z,24.10
2019-04-05T11:02:53.699Z,21.80
2019-04-05T11:03:58.029Z,24.35
2019-04-05T11:05:02.566Z,24.35
2019-04-05T11:06:06.847Z,22.73
2019-04-05T11:07:11.222Z,22.55
2019-04-05T11:08:15.537Z,20.80
2019-04-05T11:09:19.926Z,23.27
2019-04-05T11:10:24.216Z,21.77
2019-04-05T11:11:28.420Z,21.57
2019-04-05T11:12:32.631Z,21.25
2019-04-05T11:13:36.947Z,21.27
2019-04-05T11:14:41.247Z,27.02
2019-04-05T11:15:45.526Z,20.37
2019-04-05T11:16:58.435Z,23.47
2019-04-05T11:17:56.025Z,24.87
2019-04-05T11:19:01.921Z,23.07
2019-04-05T11:20:20.679Z,26.45
2019-04-05T11:21:14.103Z,24.25
2019-04-05T11:22:20.447Z,25.25
2019-04-05T11:23:24.198Z,24.12
2019-04-05T11:24:28.424Z,23.57
2019-04-05T11:25:32.738Z,24.45
2019-04-05T11:26:37.023Z,25.55
2019-04-05T11:27:41.195Z,22.35
2019-04-05T11:28:45.458Z,24.92
2019-04-05T11:29:49.769Z,23.73
2019-04-05T11:30:53.961Z,20.55
2019-04-05T11:31:58.369Z,21.35
2019-04-05T11:33:02.537Z,23.30
2019-04-05T11:34:06.814Z,23.87
2019-04-05T11:35:14.931Z,24.50
2019-04-05T11:36:18.603Z,22.55
2019-04-05T11:37:23.211Z,22.87
2019-04-05T11:38:28.481Z,25.77
2019-04-05T11:39:33.257Z,23.38
2019-04-05T11:40:39.321Z,23.18
2019-04-05T11:41:44.850Z,23.20
2019-04-05T11:42:50.012Z,22.95
2019-04-05T11:43:55.653Z,21.68
2019-04-05T11:45:00.649Z,21.52
2019-04-05T11:46:05.111Z,22.40
2019-04-05T11:47:09.483Z,21.50
2019-04-05T11:48:13.828Z,25.68
2019-04-05T11:49:19.421Z,23.45
2019-04-05T11:50:33.878Z,23.57
2019-04-05T11:51:29.821Z,22.55
2019-04-05T11:52:34.141Z,24.23
2019-04-05T11:53:38.452Z,21.15
2019-04-05T11:54:45.642Z,21.70
2019-04-05T11:55:48.716Z,20.72
2019-04-05T11:56:52.889Z,26.95
2019-04-05T11:57:57.135Z,23.32
2019-04-05T11:59:02.589Z,24.55
2019-04-05T12:00:12.537Z,24.87
2019-04-05T12:01:25.698Z,23.42
2019-04-05T12:02:40.233Z,24.18
2019-04-05T12:03:44.513Z,26.62
2019-04-05T12:04:48.800Z,22.62
2019-04-05T12:05:53.099Z,25.70
2019-04-05T12:06:57.349Z,25.30
2019-04-05T12:08:02.154Z,24.32
2019-04-05T12:09:08.583Z,26.35
2019-04-05T12:10:13.331Z,20.45
2019-04-05T12:11:17.509Z,21.60
2019-04-05T12:12:21.681Z,25.00
2019-04-05T12:13:25.963Z,23.60
2019-04-05T12:14:30.749Z,25.80
2019-04-05T12:15:35.797Z,22.02
2019-04-05T12:16:40.674Z,23.22
2019-04-05T12:17:44.970Z,24.77
2019-04-05T12:18:49.222Z,28.62
2019-04-05T12:19:53.524Z,24.63
2019-04-05T12:21:00.253Z,24.25
2019-04-05T12:22:05.294Z,25.97
2019-04-05T12:23:09.847Z,22.62
2019-04-05T12:24:14.215Z,25.95
2019-04-05T12:25:18.440Z,26.10
2019-04-05T12:26:22.729Z,20.25
2019-04-05T12:27:26.870Z,27.95
2019-04-05T12:28:31.141Z,20.60
2019-04-05T12:29:35.332Z,20.00
2019-04-05T12:30:40.661Z,22.58
2019-04-05T12:31:44.900Z,23.32
2019-04-05T12:32:49.499Z,23.18
2019-04-05T12:33:53.749Z,20.43
2019-04-05T12:34:58.061Z,20.40
2019-04-05T12:36:02.472Z,24.30
2019-04-05T12:37:06.845Z,18.87
2019-04-05T12:38:12.652Z,25.52
2019-04-05T12:39:16.819Z,25.68
2019-04-05T12:40:21.041Z,24.63
2019-04-05T12:41:25.239Z,22.30
2019-04-05T12:42:29.668Z,26.07
2019-04-05T12:43:34.631Z,19.98
2019-04-05T12:44:38.847Z,26.40
2019-04-05T12:45:44.646Z,25.45
2019-04-05T12:46:49.259Z,21.52
2019-04-05T12:47:53.739Z,23.32
2019-04-05T12:48:58.438Z,19.17
2019-04-05T12:50:02.820Z,24.57
2019-04-05T12:51:07.305Z,20.70
2019-04-05T12:52:21.774Z,22.07
2019-04-05T12:53:17.573Z,24.37
2019-04-05T12:54:21.931Z,21.75
2019-04-05T12:55:26.186Z,17.95
2019-04-05T12:56:30.499Z,20.92
2019-04-05T12:57:34.801Z,20.85
2019-04-05T12:58:39.257Z,21.77
2019-04-05T12:59:43.389Z,22.05
2019-04-05T13:00:47.573Z,19.25
2019-04-05T13:01:51.889Z,23.32
2019-04-05T13:02:57.182Z,18.37
2019-04-05T13:04:01.591Z,20.25
2019-04-05T13:05:06.648Z,18.15
2019-04-05T13:06:10.922Z,23.77
2019-04-05T13:07:15.567Z,19.35
2019-04-05T13:08:20.876Z,20.12
2019-04-05T13:09:25.821Z,19.77
2019-04-05T13:10:30.671Z,20.70
2019-04-05T13:11:35.094Z,20.65
2019-04-05T13:12:39.295Z,20.60
2019-04-05T13:13:43.687Z,21.48
2019-04-05T13:14:47.880Z,19.27
2019-04-05T13:15:52.229Z,19.45
2019-04-05T13:16:56.557Z,19.42
2019-04-05T13:18:01.449Z,20.27
2019-04-05T13:19:05.815Z,18.95
2019-04-05T13:20:10.471Z,20.75
2019-04-05T13:21:15.510Z,20.80
2019-04-05T13:22:22.602Z,21.80
2019-04-05T13:23:26.235Z,21.52
2019-04-05T13:24:30.575Z,23.98
2019-04-05T13:25:34.757Z,22.55
2019-04-05T13:26:41.738Z,19.75
2019-04-05T13:27:45.085Z,21.00
2019-04-05T13:28:49.368Z,21.93
2019-04-05T13:29:53.694Z,19.40
2019-04-05T13:30:58.067Z,20.32
2019-04-05T13:32:02.337Z,19.12
2019-04-05T13:33:06.609Z,21.42
2019-04-05T13:34:10.731Z,24.67
2019-04-05T13:35:16.805Z,18.52
2019-04-05T13:36:21.372Z,20.75
2019-04-05T13:37:25.826Z,21.85
2019-04-05T13:38:30.529Z,19.37
2019-04-05T13:39:34.803Z,18.90
2019-04-05T13:40:38.975Z,20.25
2019-04-05T13:41:43.255Z,20.23
2019-04-05T13:42:47.391Z,18.42
2019-04-05T13:43:51.664Z,20.95
2019-04-05T13:44:56.016Z,21.10
2019-04-05T13:46:00.478Z,19.92
2019-04-05T13:47:06.499Z,18.82
2019-04-05T13:48:11.441Z,18.73
2019-04-05T13:49:15.798Z,20.80
2019-04-05T13:50:20.054Z,23.90
2019-04-05T13:51:28.210Z,23.65
2019-04-05T13:52:30.467Z,20.85
2019-04-05T13:53:34.602Z,20.25
2019-04-05T13:54:40.356Z,24.82